Terminal Aerodrome Forecast
Issued by NWS Cleveland, OH

Home | Current Version | Previous Version | Graphics & Text | Print | Product List | Glossary On
Versions: 1 2 3 4 5 6 7 8 9 10 11 12 13 14 15 16 17 18
000
FTUS41 KCLE 190536
TAFMFD
TAF
KMFD 190536Z 1906/2006 22006KT 4SM BR OVC002
      TEMPO 1906/1910 2SM -DZ BR
     FM191400 19005KT P6SM OVC007
     FM191700 16005KT P6SM BKN250
     FM200400 12005KT P6SM OVC080=

USA.gov is the U.S. government's official web portal to all federal, state and local government web resources and services.